Summerfield, Louisiana
Current Conditions -  °F | °C
As of 6:53 PM on Tuesday 25 Nov 2014 (Local Time) from KELD Reporting Station
Clear Clear  
Wind Chill: 39°   Ceiling: Unl
Heat Index: 39°   Visibility: 10mi
Dew Point: 34°   Wind: 0mph
Humidity: 82%   Direction: NA
Pressure: 30.2"   Gusts: NA
Location:  32.91°N, 92.83°W
Report Text: KELD 260053Z AUTO 00000KT 10SM CLR 04/01 A3020 RMK AO2 SLP228 T00390011
Loading
Personal Weather Stations






























Interactive Weather Map New forecast layout! Learn more

10-Day Weather Forecast

Advertisements
Track Severe Weather on mobile